Time;durP1;ratioP1;P1;durP2;ratioP2;P2;SDS_P1;SDS_P2;PMS_P1;PMS_P2;Temp;Humidity;BMP_temperature;BMP_pressure;BME280_temperature;BME280_humidity;BME280_pressure;Samples;Min_cycle;Max_cycle;Signal;HPM_P1;HPM_P2
2022/03/14 00:02:06;;;;;;;;;;;;;;;;;;5051513;28;1247;-76
2022/03/14 00:04:36;;;;;;;;;;;;;;;;;;5067975;28;1219;-76
2022/03/14 00:07:05;;;;;;;;;;;;;;;;;;5086652;28;1914;-76
2022/03/14 00:09:30;;;;;;;;;;;;;;;;;;5064897;28;1288;-75
2022/03/14 00:11:57;;;;;;;;;;;;;;;;;;5081496;28;1382;-76
2022/03/14 00:14:25;;;;;;;;;;;;;;;;;;5068760;28;1303;-75
2022/03/14 00:16:56;;;;;;;;;;;;;;;;;;5106401;28;1187;-76
2022/03/14 00:19:23;;;;;;;;;;;;;;;;;;5078599;28;1243;-76
2022/03/14 00:21:49;;;;;;;;;;;;;;;;;;5067903;28;1215;-75
2022/03/14 00:24:15;;;;;;;;;;;;;;;;;;5084596;28;1178;-74
2022/03/14 00:26:41;;;;;;;;;;;;;;;;;;5069804;28;1968;-75
2022/03/14 00:29:07;;;;;;;;;;;;;;;;;;5086134;28;1218;-75
2022/03/14 00:31:32;;;;;;;;;;;;;;;;;;5086393;28;1409;-75
2022/03/14 00:33:58;;;;;;;;;;;;;;;;;;5088512;28;1370;-74
2022/03/14 00:36:25;;;;;;;;;;;;;;;;;;5088565;28;1408;-75
2022/03/14 00:38:51;;;;;;;;;;;;;;;;;;5057001;28;1255;-76
2022/03/14 00:41:16;;;;;;;;;;;;;;;;;;5049089;28;1176;-74
2022/03/14 00:43:42;;;;;;;;;;;;;;;;;;5073603;28;1457;-75
2022/03/14 00:46:08;;;;;;;;;;;;;;;;;;5108473;28;1947;-75
2022/03/14 00:48:34;;;;;;;;;;;;;;;;;;5071300;28;1459;-75
2022/03/14 00:51:01;;;;;;;;;;;;;;;;;;5107935;28;1163;-75
2022/03/14 00:53:27;;;;;;;;;;;;;;;;;;5103983;28;1179;-76
2022/03/14 00:55:52;;;;;;;;;;;;;;;;;;5105477;28;1337;-75
2022/03/14 00:58:17;;;;;;;;;;;;;;;;;;5069255;28;1295;-75
2022/03/14 01:00:42;;;;;;;;;;;;;;;;;;5086553;28;1120;-75
2022/03/14 01:03:08;;;;;;;;;;;;;;;;;;5092930;28;1222;-76
2022/03/14 01:05:33;;;;;;;;;;;;;;;;;;5061848;28;1917;-76
2022/03/14 01:07:58;;;;;;;;;;;;;;;;;;5085556;28;1290;-76
2022/03/14 01:10:25;;;;;;;;;;;;;;;;;;5104060;28;1151;-75
2022/03/14 01:12:57;;;;;;;;;;;;;;;;;;5070477;28;1349;-76
2022/03/14 01:15:24;;;;;;;;;;;;;;;;;;5083711;28;1365;-75
2022/03/14 01:17:50;;;;;;;;;;;;;;;;;;5084196;28;1207;-75
2022/03/14 01:20:15;;;;;;;;;;;;;;;;;;5047211;28;1223;-75
2022/03/14 01:22:41;;;;;;;;;;;;;;;;;;5062150;28;1097;-76
2022/03/14 01:25:06;;;;;;;;;;;;;;;;;;5061885;28;1294;-76
2022/03/14 01:27:32;;;;;;;;;;;;;;;;;;5081662;28;1946;-76
2022/03/14 01:29:57;;;;;;;;;;;;;;;;;;5082697;28;1387;-75
2022/03/14 01:32:22;;;;;;;;;;;;;;;;;;5086372;28;1218;-76
2022/03/14 01:34:48;;;;;;;;;;;;;;;;;;5082928;28;1175;-76
2022/03/14 01:37:13;;;;;;;;;;;;;;;;;;5061856;28;1186;-76
2022/03/14 01:39:38;;;;;;;;;;;;;;;;;;5061879;28;1093;-76
2022/03/14 01:42:04;;;;;;;;;;;;;;;;;;5064795;28;1006;-76
2022/03/14 01:44:30;;;;;;;;;;;;;;;;;;5061925;28;1583;-76
2022/03/14 01:46:56;;;;;;;;;;;;;;;;;;5064172;28;1957;-76
2022/03/14 01:49:21;;;;;;;;;;;;;;;;;;5047498;28;1279;-74
2022/03/14 01:51:46;;;;;;;;;;;;;;;;;;5070499;28;1271;-75
2022/03/14 01:54:12;;;;;;;;;;;;;;;;;;5065315;28;1439;-76
2022/03/14 01:56:39;;;;;;;;;;;;;;;;;;5068843;28;1064;-75
2022/03/14 01:59:05;;;;;;;;;;;;;;;;;;5083793;28;1198;-75
2022/03/14 02:01:31;;;;;;;;;;;;;;;;;;5082189;28;1186;-75
2022/03/14 02:03:56;;;;;;;;;;;;;;;;;;5067206;28;1411;-75
2022/03/14 02:06:22;;;;;;;;;;;;;;;;;;5083127;28;1953;-76
2022/03/14 02:08:47;;;;;;;;;;;;;;;;;;5080049;28;1231;-75
2022/03/14 02:11:12;;;;;;;;;;;;;;;;;;5081429;28;1210;-75
2022/03/14 02:13:37;;;;;;;;;;;;;;;;;;5081418;28;1369;-75
2022/03/14 02:16:03;;;;;;;;;;;;;;;;;;5105681;28;1281;-74
2022/03/14 02:18:32;;;;;;;;;;;;;;;;;;5104269;28;1239;-74
2022/03/14 02:20:57;;;;;;;;;;;;;;;;;;5086798;28;1231;-75
2022/03/14 02:23:23;;;;;;;;;;;;;;;;;;5083894;28;1166;-75
2022/03/14 02:25:53;;;;;;;;;;;;;;;;;;5066230;28;2010;-75
2022/03/14 02:28:21;;;;;;;;;;;;;;;;;;5062501;28;1221;-74
2022/03/14 02:30:47;;;;;;;;;;;;;;;;;;5073991;28;1294;-74
2022/03/14 02:33:12;;;;;;;;;;;;;;;;;;5105047;28;1203;-75
2022/03/14 02:35:39;;;;;;;;;;;;;;;;;;5085892;28;1333;-75
2022/03/14 02:38:10;;;;;;;;;;;;;;;;;;5069014;28;1382;-74
2022/03/14 02:40:39;;;;;;;;;;;;;;;;;;5063065;28;1286;-75
2022/03/14 02:43:04;;;;;;;;;;;;;;;;;;5082852;28;1124;-75
2022/03/14 02:45:30;;;;;;;;;;;;;;;;;;5067169;28;1894;-75
2022/03/14 02:47:55;;;;;;;;;;;;;;;;;;5064145;28;1228;-74
2022/03/14 02:50:21;;;;;;;;;;;;;;;;;;5050520;28;1347;-75
2022/03/14 02:52:47;;;;;;;;;;;;;;;;;;5075925;28;1264;-75
2022/03/14 02:55:13;;;;;;;;;;;;;;;;;;5070247;28;1341;-75
2022/03/14 02:57:38;;;;;;;;;;;;;;;;;;5097913;28;1195;-76
2022/03/14 03:00:05;;;;;;;;;;;;;;;;;;5068250;28;1227;-76
2022/03/14 03:02:35;;;;;;;;;;;;;;;;;;5090534;28;1271;-76
2022/03/14 03:05:01;;;;;;;;;;;;;;;;;;5088111;28;1156;-75
2022/03/14 03:07:26;;;;;;;;;;;;;;;;;;5108823;28;1968;-76
2022/03/14 03:09:51;;;;;;;;;;;;;;;;;;5099540;28;1128;-75
2022/03/14 03:12:20;;;;;;;;;;;;;;;;;;5070137;28;1702;-75
2022/03/14 03:14:45;;;;;;;;;;;;;;;;;;5049420;28;1227;-75
2022/03/14 03:17:10;;;;;;;;;;;;;;;;;;5069817;28;1231;-74
2022/03/14 03:19:39;;;;;;;;;;;;;;;;;;5069904;28;1164;-75
2022/03/14 03:22:05;;;;;;;;;;;;;;;;;;5051876;28;1390;-75
2022/03/14 03:24:31;;;;;;;;;;;;;;;;;;5050202;28;1250;-74
2022/03/14 03:26:56;;;;;;;;;;;;;;;;;;5051782;28;1914;-74
2022/03/14 03:29:23;;;;;;;;;;;;;;;;;;5066977;28;1294;-75
2022/03/14 03:31:49;;;;;;;;;;;;;;;;;;5087072;28;1141;-75
2022/03/14 03:34:15;;;;;;;;;;;;;;;;;;5070106;28;1183;-75
2022/03/14 03:36:40;;;;;;;;;;;;;;;;;;5056578;28;1251;-75
2022/03/14 03:39:06;;;;;;;;;;;;;;;;;;5105717;28;1131;-75
2022/03/14 03:41:31;;;;;;;;;;;;;;;;;;5086743;28;1188;-75
2022/03/14 03:43:57;;;;;;;;;;;;;;;;;;5084981;28;1218;-76
2022/03/14 03:46:23;;;;;;;;;;;;;;;;;;5089899;28;1890;-75
2022/03/14 03:48:48;;;;;;;;;;;;;;;;;;5071366;28;1192;-74
2022/03/14 03:51:13;;;;;;;;;;;;;;;;;;5089283;28;1214;-76
2022/03/14 03:53:39;;;;;;;;;;;;;;;;;;5105055;28;1128;-76
2022/03/14 03:56:05;;;;;;;;;;;;;;;;;;5084745;28;1349;-75
2022/03/14 03:58:30;;;;;;;;;;;;;;;;;;5086305;28;1433;-75
2022/03/14 04:00:55;;;;;;;;;;;;;;;;;;5087453;28;1143;-76
2022/03/14 04:03:21;;;;;;;;;;;;;;;;;;5106428;28;1306;-75
2022/03/14 04:05:46;;;;;;;;;;;;;;;;;;5073764;28;1890;-75
2022/03/14 04:08:13;;;;;;;;;;;;;;;;;;5077937;28;1139;-76
2022/03/14 04:10:39;;;;;;;;;;;;;;;;;;5066860;28;1104;-76
2022/03/14 04:13:06;;;;;;;;;;;;;;;;;;5048865;28;1121;-75
2022/03/14 04:15:31;;;;;;;;;;;;;;;;;;5078098;28;1314;-76
2022/03/14 04:17:59;;;;;;;;;;;;;;;;;;5105164;28;1139;-76
2022/03/14 04:20:24;;;;;;;;;;;;;;;;;;5088702;28;1005;-76
2022/03/14 04:22:53;;;;;;;;;;;;;;;;;;5070905;28;1287;-75
2022/03/14 04:25:18;;;;;;;;;;;;;;;;;;5084164;28;1120;-74
2022/03/14 04:27:44;;;;;;;;;;;;;;;;;;5077822;28;1973;-75
2022/03/14 04:30:10;;;;;;;;;;;;;;;;;;5080486;28;1392;-76
2022/03/14 04:32:35;;;;;;;;;;;;;;;;;;5068043;28;1290;-76
2022/03/14 04:35:01;;;;;;;;;;;;;;;;;;5067893;28;1167;-76
2022/03/14 04:37:26;;;;;;;;;;;;;;;;;;5065731;28;1196;-75
2022/03/14 04:39:51;;;;;;;;;;;;;;;;;;5048510;28;1293;-75
2022/03/14 04:42:20;;;;;;;;;;;;;;;;;;5051900;28;1208;-75
2022/03/14 04:44:49;;;;;;;;;;;;;;;;;;5065488;28;1152;-76
2022/03/14 04:47:14;;;;;;;;;;;;;;;;;;5086630;28;1921;-74
2022/03/14 04:49:39;;;;;;;;;;;;;;;;;;5069621;28;1295;-74
2022/03/14 04:52:06;;;;;;;;;;;;;;;;;;5086229;28;1168;-78
2022/03/14 04:54:31;;;;;;;;;;;;;;;;;;5086260;28;1159;-75
2022/03/14 04:56:57;;;;;;;;;;;;;;;;;;5088333;28;1171;-75
2022/03/14 04:59:22;;;;;;;;;;;;;;;;;;5069815;28;1443;-75
2022/03/14 05:01:48;;;;;;;;;;;;;;;;;;5104102;28;1222;-75
2022/03/14 05:04:14;;;;;;;;;;;;;;;;;;5071531;28;1346;-74
2022/03/14 05:06:40;;;;;;;;;;;;;;;;;;5071875;28;1878;-74
2022/03/14 05:09:05;;;;;;;;;;;;;;;;;;5085437;28;1377;-75
2022/03/14 05:11:32;;;;;;;;;;;;;;;;;;5085494;28;1151;-75
2022/03/14 05:13:58;;;;;;;;;;;;;;;;;;5067391;28;1466;-75
2022/03/14 05:16:25;;;;;;;;;;;;;;;;;;5072483;28;1290;-75
2022/03/14 05:18:51;;;;;;;;;;;;;;;;;;5067056;28;1711;-75
2022/03/14 05:21:16;;;;;;;;;;;;;;;;;;5055425;28;1369;-75
2022/03/14 05:23:41;;;;;;;;;;;;;;;;;;5054851;28;1563;-75
2022/03/14 05:26:07;;;;;;;;;;;;;;;;;;5080025;28;1967;-75
2022/03/14 05:28:32;;;;;;;;;;;;;;;;;;5080916;28;1167;-75
2022/03/14 05:30:57;;;;;;;;;;;;;;;;;;5067280;28;1379;-76
2022/03/14 05:33:23;;;;;;;;;;;;;;;;;;5085198;28;1188;-76
2022/03/14 05:35:49;;;;;;;;;;;;;;;;;;5085230;28;1317;-73
2022/03/14 05:38:15;;;;;;;;;;;;;;;;;;5075689;28;1309;-77
2022/03/14 05:40:40;;;;;;;;;;;;;;;;;;5064469;28;1242;-77
2022/03/14 05:43:10;;;;;;;;;;;;;;;;;;5087186;28;1104;-77
2022/03/14 05:45:35;;;;;;;;;;;;;;;;;;5090929;28;1895;-77
2022/03/14 05:48:01;;;;;;;;;;;;;;;;;;5085529;28;1221;-75
2022/03/14 05:50:26;;;;;;;;;;;;;;;;;;5087445;28;1194;-76
2022/03/14 05:52:55;;;;;;;;;;;;;;;;;;5083974;28;1175;-76
2022/03/14 05:55:23;;;;;;;;;;;;;;;;;;5075099;28;1164;-77
2022/03/14 05:58:01;;;;;;;;;;;;;;;;;;5049883;28;1294;-75
2022/03/14 06:00:26;;;;;;;;;;;;;;;;;;5066637;28;1222;-74
2022/03/14 06:02:58;;;;;;;;;;;;;;;;;;5083117;28;1202;-75
2022/03/14 06:05:23;;;;;;;;;;;;;;;;;;5079163;28;1454;-76
2022/03/14 06:07:52;;;;;;;;;;;;;;;;;;5067760;28;1960;-76
2022/03/14 06:10:18;;;;;;;;;;;;;;;;;;5083465;28;1195;-76
2022/03/14 06:12:44;;;;;;;;;;;;;;;;;;5099853;28;1131;-75
2022/03/14 06:15:12;;;;;;;;;;;;;;;;;;5055689;28;1482;-74
2022/03/14 06:17:37;;;;;;;;;;;;;;;;;;5062716;28;1300;-75
2022/03/14 06:20:03;;;;;;;;;;;;;;;;;;5062042;28;1211;-75
2022/03/14 06:22:28;;;;;;;;;;;;;;;;;;5062039;28;1286;-75
2022/03/14 06:24:57;;;;;;;;;;;;;;;;;;5072702;28;1171;-76
2022/03/14 06:27:22;;;;;;;;;;;;;;;;;;5089089;28;1914;-74
2022/03/14 06:29:48;;;;;;;;;;;;;;;;;;5086781;28;1310;-76
2022/03/14 06:32:13;;;;;;;;;;;;;;;;;;5086666;28;1186;-75
2022/03/14 06:34:39;;;;;;;;;;;;;;;;;;5088388;28;1451;-77
2022/03/14 06:37:13;;;;;;;;;;;;;;;;;;5069159;28;1152;-75
2022/03/14 06:39:39;;;;;;;;;;;;;;;;;;5067287;28;1273;-75
2022/03/14 06:42:09;;;;;;;;;;;;;;;;;;5087973;28;1360;-76
2022/03/14 06:44:38;;;;;;;;;;;;;;;;;;5087846;28;1417;-75
2022/03/14 06:47:04;;;;;;;;;;;;;;;;;;5088660;28;1957;-75
2022/03/14 06:49:29;;;;;;;;;;;;;;;;;;5087622;28;1252;-75
2022/03/14 06:51:58;;;;;;;;;;;;;;;;;;5072367;28;1296;-75
2022/03/14 06:54:23;;;;;;;;;;;;;;;;;;5067747;28;1359;-75
2022/03/14 06:56:49;;;;;;;;;;;;;;;;;;5090619;28;1160;-75
2022/03/14 06:59:15;;;;;;;;;;;;;;;;;;5085872;28;1148;-75
2022/03/14 07:01:40;;;;;;;;;;;;;;;;;;5072925;28;1144;-75
2022/03/14 07:04:05;;;;;;;;;;;;;;;;;;5067357;28;1302;-75
2022/03/14 07:06:31;;;;;;;;;;;;;;;;;;5067663;28;1945;-75
2022/03/14 07:09:02;;;;;;;;;;;;;;;;;;5065179;28;1168;-76
2022/03/14 07:11:28;;;;;;;;;;;;;;;;;;5048836;28;1285;-75
2022/03/14 07:13:53;;;;;;;;;;;;;;;;;;5074049;28;1158;-75
2022/03/14 07:16:19;;;;;;;;;;;;;;;;;;5086474;28;1235;-74
2022/03/14 07:18:44;;;;;;;;;;;;;;;;;;5069206;28;1433;-74
2022/03/14 07:21:09;;;;;;;;;;;;;;;;;;5069288;28;1317;-74
2022/03/14 07:23:35;;;;;;;;;;;;;;;;;;5084790;28;1281;-75
2022/03/14 07:26:04;;;;;;;;;;;;;;;;;;5086014;28;1902;-76
2022/03/14 07:28:29;;;;;;;;;;;;;;;;;;5068774;28;1463;-76
2022/03/14 07:30:54;;;;;;;;;;;;;;;;;;5086913;28;1175;-74
2022/03/14 07:33:20;;;;;;;;;;;;;;;;;;5069138;28;1290;-75
2022/03/14 07:35:45;;;;;;;;;;;;;;;;;;5087827;28;1144;-74
2022/03/14 07:38:11;;;;;;;;;;;;;;;;;;5082890;28;1217;-74
2022/03/14 07:40:36;;;;;;;;;;;;;;;;;;5066192;28;1179;-75
2022/03/14 07:43:03;;;;;;;;;;;;;;;;;;5063822;28;1166;-75
2022/03/14 07:45:29;;;;;;;;;;;;;;;;;;5086179;28;1187;-75
2022/03/14 07:47:54;;;;;;;;;;;;;;;;;;5087543;28;1889;-75
2022/03/14 07:50:20;;;;;;;;;;;;;;;;;;5086216;28;1195;-73
2022/03/14 07:52:47;;;;;;;;;;;;;;;;;;5086811;28;1246;-75
2022/03/14 07:55:12;;;;;;;;;;;;;;;;;;5082862;28;1189;-77
2022/03/14 07:57:38;;;;;;;;;;;;;;;;;;5070216;28;1395;-77
2022/03/14 08:00:05;;;;;;;;;;;;;;;;;;5082618;28;1207;-75
2022/03/14 08:02:30;;;;;;;;;;;;;;;;;;5084990;28;1234;-75
2022/03/14 08:04:55;;;;;;;;;;;;;;;;;;5070973;28;1227;-76
2022/03/14 08:07:21;;;;;;;;;;;;;;;;;;5064774;28;1960;-75
2022/03/14 08:09:49;;;;;;;;;;;;;;;;;;5073887;28;1207;-74
2022/03/14 08:12:15;;;;;;;;;;;;;;;;;;5067461;28;1179;-73
2022/03/14 08:14:41;;;;;;;;;;;;;;;;;;5061569;28;1235;-76
2022/03/14 08:17:06;;;;;;;;;;;;;;;;;;5087276;28;1199;-76
2022/03/14 08:19:32;;;;;;;;;;;;;;;;;;5102059;28;1290;-76
2022/03/14 08:21:58;;;;;;;;;;;;;;;;;;5072097;28;1302;-74
2022/03/14 08:24:24;;;;;;;;;;;;;;;;;;5066287;28;1312;-76
2022/03/14 08:26:49;;;;;;;;;;;;;;;;;;5054116;28;1917;-76
2022/03/14 08:29:15;;;;;;;;;;;;;;;;;;5070074;28;1558;-75
2022/03/14 08:31:41;;;;;;;;;;;;;;;;;;5086171;28;1230;-75
2022/03/14 08:34:07;;;;;;;;;;;;;;;;;;5050586;28;1161;-75
2022/03/14 08:36:35;;;;;;;;;;;;;;;;;;5071644;28;1151;-75
2022/03/14 08:39:01;;;;;;;;;;;;;;;;;;5087506;28;1167;-74
2022/03/14 08:41:27;;;;;;;;;;;;;;;;;;5084811;28;1197;-75
2022/03/14 08:43:52;;;;;;;;;;;;;;;;;;5071958;28;1156;-74
2022/03/14 08:46:17;;;;;;;;;;;;;;;;;;5067396;28;1898;-76
2022/03/14 08:48:42;;;;;;;;;;;;;;;;;;5084930;28;1206;-77
2022/03/14 08:51:09;;;;;;;;;;;;;;;;;;5086571;28;1378;-77
2022/03/14 08:53:34;;;;;;;;;;;;;;;;;;5085930;28;1199;-75
2022/03/14 08:56:03;;;;;;;;;;;;;;;;;;5103007;28;1163;-75
2022/03/14 08:58:31;;;;;;;;;;;;;;;;;;5074224;28;1270;-75
2022/03/14 09:00:58;;;;;;;;;;;;;;;;;;5088510;28;1139;-75
2022/03/14 09:03:24;;;;;;;;;;;;;;;;;;5085683;28;1380;-75
2022/03/14 09:05:49;;;;;;;;;;;;;;;;;;5069737;28;1898;-75
2022/03/14 09:08:15;;;;;;;;;;;;;;;;;;5085410;28;1179;-75
2022/03/14 09:10:41;;;;;;;;;;;;;;;;;;5069912;28;1295;-74
2022/03/14 09:13:07;;;;;;;;;;;;;;;;;;5048350;28;1171;-75
2022/03/14 09:15:32;;;;;;;;;;;;;;;;;;5065685;28;1465;-75
2022/03/14 09:17:59;;;;;;;;;;;;;;;;;;5052931;28;1328;-76
2022/03/14 09:20:26;;;;;;;;;;;;;;;;;;5086536;28;1127;-75
2022/03/14 09:22:51;;;;;;;;;;;;;;;;;;5080566;28;1404;-76
2022/03/14 09:25:17;;;;;;;;;;;;;;;;;;5064021;28;1117;-75
2022/03/14 09:27:42;;;;;;;;;;;;;;;;;;5058662;28;1910;-75
2022/03/14 09:30:09;;;;;;;;;;;;;;;;;;5102108;28;1194;-76
2022/03/14 09:32:34;;;;;;;;;;;;;;;;;;5085489;28;1144;-75
2022/03/14 09:35:00;;;;;;;;;;;;;;;;;;5087296;28;1184;-76
2022/03/14 09:37:26;;;;;;;;;;;;;;;;;;5065863;28;1227;-76
2022/03/14 09:39:51;;;;;;;;;;;;;;;;;;5075820;28;1144;-75
2022/03/14 09:42:17;;;;;;;;;;;;;;;;;;5082400;28;1168;-76
2022/03/14 09:44:43;;;;;;;;;;;;;;;;;;5080457;28;1269;-74
2022/03/14 09:47:09;;;;;;;;;;;;;;;;;;5085942;28;1890;-75
2022/03/14 09:49:35;;;;;;;;;;;;;;;;;;5071680;28;1211;-75
2022/03/14 09:52:05;;;;;;;;;;;;;;;;;;5069516;28;1303;-75
2022/03/14 09:54:30;;;;;;;;;;;;;;;;;;5083367;28;1250;-75
2022/03/14 09:56:57;;;;;;;;;;;;;;;;;;5070080;28;1148;-75
2022/03/14 09:59:22;;;;;;;;;;;;;;;;;;5063406;28;1187;-75
2022/03/14 10:01:48;;;;;;;;;;;;;;;;;;5088584;28;1183;-75
2022/03/14 10:04:14;;;;;;;;;;;;;;;;;;5070374;28;1211;-75
2022/03/14 10:06:40;;;;;;;;;;;;;;;;;;5069345;28;1889;-75
2022/03/14 10:09:06;;;;;;;;;;;;;;;;;;5050279;28;1208;-75
2022/03/14 10:11:31;;;;;;;;;;;;;;;;;;5067420;28;1155;-75
2022/03/14 10:13:57;;;;;;;;;;;;;;;;;;5067504;28;1285;-75
2022/03/14 10:16:22;;;;;;;;;;;;;;;;;;5069069;28;1200;-75
2022/03/14 10:19:07;;;;;;;;;;;;;;;;;;5069962;28;1148;-75
2022/03/14 10:21:39;;;;;;;;;;;;;;;;;;5086782;28;1001;-75
2022/03/14 10:24:06;;;;;;;;;;;;;;;;;;5086201;28;1175;-74
2022/03/14 10:26:33;;;;;;;;;;;;;;;;;;5052067;28;1926;-74
2022/03/14 10:28:59;;;;;;;;;;;;;;;;;;5056176;28;1294;-74
2022/03/14 10:31:31;;;;;;;;;;;;;;;;;;5068898;28;1207;-74
2022/03/14 10:34:01;;;;;;;;;;;;;;;;;;5086678;28;1029;-74
2022/03/14 10:36:39;;;;;;;;;;;;;;;;;;5085385;28;1194;-74
2022/03/14 10:39:27;;;;;;;;;;;;;;;;;;5088181;28;1433;-74
2022/03/14 10:42:07;;;;;;;;;;;;;;;;;;5073724;28;1423;-75
2022/03/14 10:44:33;;;;;;;;;;;;;;;;;;5087945;28;1064;-75
2022/03/14 10:47:05;;;;;;;;;;;;;;;;;;5109253;28;1902;-75
2022/03/14 10:49:31;;;;;;;;;;;;;;;;;;5090661;28;1296;-75
2022/03/14 10:51:57;;;;;;;;;;;;;;;;;;5113220;28;1370;-76
2022/03/14 10:54:23;;;;;;;;;;;;;;;;;;5093662;28;1185;-75
2022/03/14 10:57:05;;;;;;;;;;;;;;;;;;5091050;28;1455;-73
2022/03/14 10:59:34;;;;;;;;;;;;;;;;;;5087492;28;1083;-75
2022/03/14 11:02:01;;;;;;;;;;;;;;;;;;5088759;28;1160;-75
2022/03/14 11:04:27;;;;;;;;;;;;;;;;;;5051717;28;1208;-76
2022/03/14 11:07:11;;;;;;;;;;;;;;;;;;5070668;28;1951;-78
2022/03/14 11:09:39;;;;;;;;;;;;;;;;;;5098409;28;1231;-74
2022/03/14 11:12:09;;;;;;;;;;;;;;;;;;5091633;28;1430;-75
2022/03/14 11:14:34;;;;;;;;;;;;;;;;;;5087985;28;1447;-75
2022/03/14 11:17:26;;;;;;;;;;;;;;;;;;5110079;28;1230;-76
2022/03/14 11:19:52;;;;;;;;;;;;;;;;;;5076523;28;1399;-74
2022/03/14 11:22:18;;;;;;;;;;;;;;;;;;5085862;28;1214;-75
2022/03/14 11:24:50;;;;;;;;;;;;;;;;;;5051091;28;1259;-76
2022/03/14 11:27:21;;;;;;;;;;;;;;;;;;5088903;28;1910;-76
2022/03/14 11:29:47;;;;;;;;;;;;;;;;;;5072399;28;1230;-75
2022/03/14 11:32:13;;;;;;;;;;;;;;;;;;5107674;28;1135;-74
2022/03/14 11:34:39;;;;;;;;;;;;;;;;;;5087704;28;1237;-75
2022/03/14 11:37:14;;;;;;;;;;;;;;;;;;5071615;28;1269;-77
2022/03/14 11:39:39;;;;;;;;;;;;;;;;;;5105863;28;1127;-77
2022/03/14 11:42:05;;;;;;;;;;;;;;;;;;5089234;28;1179;-79
2022/03/14 11:44:30;;;;;;;;;;;;;;;;;;5069657;28;1210;-78
2022/03/14 11:46:57;;;;;;;;;;;;;;;;;;5070501;28;1885;-77
2022/03/14 11:49:32;;;;;;;;;;;;;;;;;;5082973;28;1311;-76
2022/03/14 11:52:19;;;;;;;;;;;;;;;;;;5097241;28;1140;-82
2022/03/14 11:54:59;;;;;;;;;;;;;;;;;;5077924;28;1184;-80
2022/03/14 11:57:34;;;;;;;;;;;;;;;;;;5110866;28;1167;-78
2022/03/14 12:00:20;;;;;;;;;;;;;;;;;;5108844;28;1053;-78
2022/03/14 12:02:46;;;;;;;;;;;;;;;;;;5075194;28;1339;-76
2022/03/14 12:05:11;;;;;;;;;;;;;;;;;;5088212;28;1414;-76
2022/03/14 12:07:36;;;;;;;;;;;;;;;;;;5068706;28;1947;-77
2022/03/14 12:10:22;;;;;;;;;;;;;;;;;;5067168;28;1195;-75
2022/03/14 12:12:53;;;;;;;;;;;;;;;;;;5067161;28;1272;-76
2022/03/14 12:15:41;;;;;;;;;;;;;;;;;;5049892;28;1323;-76
2022/03/14 12:18:32;;;;;;;;;;;;;;;;;;5067475;28;1168;-76
2022/03/14 12:20:59;;;;;;;;;;;;;;;;;;5084025;28;1180;-75
2022/03/14 12:23:27;;;;;;;;;;;;;;;;;;5066182;28;1257;-76
2022/03/14 12:25:53;;;;;;;;;;;;;;;;;;5066900;28;1914;-76
2022/03/14 12:28:37;;;;;;;;;;;;;;;;;;5066027;28;1215;-76
2022/03/14 12:31:10;;;;;;;;;;;;;;;;;;5068086;28;1223;-76
2022/03/14 12:33:45;;;;;;;;;;;;;;;;;;5085345;28;1366;-75
2022/03/14 12:36:23;;;;;;;;;;;;;;;;;;5086045;28;1202;-76
2022/03/14 12:39:10;;;;;;;;;;;;;;;;;;5063859;28;1229;-76
2022/03/14 12:41:36;;;;;;;;;;;;;;;;;;5063677;28;1214;-76
2022/03/14 12:44:14;;;;;;;;;;;;;;;;;;5065950;28;1183;-76
2022/03/14 12:46:40;;;;;;;;;;;;;;;;;;5084652;28;1898;-76
2022/03/14 12:49:05;;;;;;;;;;;;;;;;;;5075596;28;1144;-76
2022/03/14 12:51:38;;;;;;;;;;;;;;;;;;5066857;28;1184;-75
2022/03/14 12:54:03;;;;;;;;;;;;;;;;;;5067016;28;1353;-76
2022/03/14 12:56:30;;;;;;;;;;;;;;;;;;5083131;28;1155;-76
2022/03/14 12:58:56;;;;;;;;;;;;;;;;;;5068314;28;1200;-78
2022/03/14 13:01:22;;;;;;;;;;;;;;;;;;5106826;28;1201;-75
2022/03/14 13:03:47;;;;;;;;;;;;;;;;;;5086967;28;1243;-76
2022/03/14 13:06:13;;;;;;;;;;;;;;;;;;5071840;28;1901;-76
2022/03/14 13:08:47;;;;;;;;;;;;;;;;;;5084403;28;1230;-75
2022/03/14 13:11:13;;;;;;;;;;;;;;;;;;5104607;28;1210;-75
2022/03/14 13:13:38;;;;;;;;;;;;;;;;;;5070884;28;1207;-76
2022/03/14 13:16:06;;;;;;;;;;;;;;;;;;5068229;28;1287;-76
2022/03/14 13:18:33;;;;;;;;;;;;;;;;;;5065516;28;1190;-77
2022/03/14 13:20:59;;;;;;;;;;;;;;;;;;5067530;28;1467;-78
2022/03/14 13:23:25;;;;;;;;;;;;;;;;;;5070639;28;1262;-75
2022/03/14 13:25:51;;;;;;;;;;;;;;;;;;5082044;28;1235;-76
2022/03/14 13:28:39;;;;;;;;;;;;;;;;;;5065861;28;1977;-77
2022/03/14 13:31:09;;;;;;;;;;;;;;;;;;5067402;28;1303;-76
2022/03/14 13:33:39;;;;;;;;;;;;;;;;;;5065353;28;1175;-77
2022/03/14 13:36:14;;;;;;;;;;;;;;;;;;5085009;28;1294;-76
2022/03/14 13:38:40;;;;;;;;;;;;;;;;;;5068443;28;1204;-75
2022/03/14 13:41:09;;;;;;;;;;;;;;;;;;5075273;28;1467;-75
2022/03/14 13:43:36;;;;;;;;;;;;;;;;;;5083293;28;1311;-76
2022/03/14 13:46:30;;;;;;;;;;;;;;;;;;5086868;28;1941;-76
2022/03/14 13:48:58;;;;;;;;;;;;;;;;;;5104141;28;1175;-75
2022/03/14 13:51:25;;;;;;;;;;;;;;;;;;5105148;28;1156;-77
2022/03/14 13:53:50;;;;;;;;;;;;;;;;;;5100856;28;1072;-75
2022/03/14 13:56:16;;;;;;;;;;;;;;;;;;5064882;28;1100;-75
2022/03/14 13:58:54;;;;;;;;;;;;;;;;;;5046790;28;1305;-75
2022/03/14 14:01:20;;;;;;;;;;;;;;;;;;5085726;28;1148;-75
2022/03/14 14:03:46;;;;;;;;;;;;;;;;;;5049901;28;1381;-76
2022/03/14 14:06:12;;;;;;;;;;;;;;;;;;5067337;28;1898;-75
2022/03/14 14:08:38;;;;;;;;;;;;;;;;;;5082019;28;1121;-75
2022/03/14 14:11:03;;;;;;;;;;;;;;;;;;5062876;28;1342;-76
2022/03/14 14:13:47;;;;;;;;;;;;;;;;;;5071675;28;1199;-76
2022/03/14 14:16:24;;;;;;;;;;;;;;;;;;5079915;28;1216;-77
2022/03/14 14:19:14;;;;;;;;;;;;;;;;;;5085549;28;1277;-76
2022/03/14 14:21:52;;;;;;;;;;;;;;;;;;5085295;28;1401;-76
2022/03/14 14:24:22;;;;;;;;;;;;;;;;;;5068675;28;1426;-76
2022/03/14 14:26:47;;;;;;;;;;;;;;;;;;5077390;28;1967;-77
2022/03/14 14:29:36;;;;;;;;;;;;;;;;;;5084402;28;1489;-76
2022/03/14 14:32:18;;;;;;;;;;;;;;;;;;5085209;28;1289;-75
2022/03/14 14:34:44;;;;;;;;;;;;;;;;;;5103482;28;1384;-75
2022/03/14 14:37:13;;;;;;;;;;;;;;;;;;5065644;28;1257;-75
2022/03/14 14:39:39;;;;;;;;;;;;;;;;;;5062796;28;1368;-75
2022/03/14 14:42:08;;;;;;;;;;;;;;;;;;5048756;28;1209;-76
2022/03/14 14:44:36;;;;;;;;;;;;;;;;;;5066441;28;1516;-76
2022/03/14 14:47:04;;;;;;;;;;;;;;;;;;5086129;28;1905;-77
2022/03/14 14:49:30;;;;;;;;;;;;;;;;;;5089756;28;1160;-76
2022/03/14 14:51:58;;;;;;;;;;;;;;;;;;5057970;28;1419;-76
2022/03/14 14:54:24;;;;;;;;;;;;;;;;;;5086777;28;1360;-77
2022/03/14 14:56:49;;;;;;;;;;;;;;;;;;5088876;28;1231;-76
2022/03/14 14:59:15;;;;;;;;;;;;;;;;;;5086963;28;1287;-77
2022/03/14 15:01:41;;;;;;;;;;;;;;;;;;5071929;28;1326;-77
2022/03/14 15:04:06;;;;;;;;;;;;;;;;;;5090427;28;1307;-77
2022/03/14 15:06:34;;;;;;;;;;;;;;;;;;5074250;28;1886;-77
2022/03/14 15:09:00;;;;;;;;;;;;;;;;;;5086945;28;1049;-75
2022/03/14 15:11:25;;;;;;;;;;;;;;;;;;5087286;28;1217;-77
2022/03/14 15:13:51;;;;;;;;;;;;;;;;;;5068998;28;1258;-76
2022/03/14 15:16:16;;;;;;;;;;;;;;;;;;5107233;28;1214;-76
2022/03/14 15:18:42;;;;;;;;;;;;;;;;;;5087311;28;1217;-77
2022/03/14 15:21:07;;;;;;;;;;;;;;;;;;5058744;28;1307;-77
2022/03/14 15:23:32;;;;;;;;;;;;;;;;;;5051974;28;1167;-76
2022/03/14 15:25:58;;;;;;;;;;;;;;;;;;5071147;28;1959;-76
2022/03/14 15:28:23;;;;;;;;;;;;;;;;;;5087483;28;1379;-77
2022/03/14 15:30:49;;;;;;;;;;;;;;;;;;5089077;28;1223;-77
2022/03/14 15:33:14;;;;;;;;;;;;;;;;;;5089297;28;1222;-77
2022/03/14 15:35:41;;;;;;;;;;;;;;;;;;5088969;28;1254;-75
2022/03/14 15:38:06;;;;;;;;;;;;;;;;;;5083839;28;1187;-76
2022/03/14 15:40:31;;;;;;;;;;;;;;;;;;5085104;28;1148;-76
2022/03/14 15:42:59;;;;;;;;;;;;;;;;;;5066253;28;1211;-76
2022/03/14 15:45:25;;;;;;;;;;;;;;;;;;5052594;28;1643;-76
2022/03/14 15:47:51;;;;;;;;;;;;;;;;;;5049618;28;1886;-77
2022/03/14 15:50:16;;;;;;;;;;;;;;;;;;5089541;28;1322;-76
2022/03/14 15:52:45;;;;;;;;;;;;;;;;;;5103805;28;1156;-77
2022/03/14 15:55:13;;;;;;;;;;;;;;;;;;5086154;28;1182;-76
2022/03/14 15:57:38;;;;;;;;;;;;;;;;;;5106460;28;1226;-76
2022/03/14 16:00:05;;;;;;;;;;;;;;;;;;5066818;28;1175;-76
2022/03/14 16:02:31;;;;;;;;;;;;;;;;;;5086832;28;1045;-76
2022/03/14 16:04:57;;;;;;;;;;;;;;;;;;5050594;28;1223;-77
2022/03/14 16:07:22;;;;;;;;;;;;;;;;;;5083671;28;1894;-81
2022/03/14 16:09:48;;;;;;;;;;;;;;;;;;5048294;28;1208;-82
2022/03/14 16:12:13;;;;;;;;;;;;;;;;;;5086155;28;1279;-77
2022/03/14 16:14:39;;;;;;;;;;;;;;;;;;5104847;28;1152;-74
2022/03/14 16:17:04;;;;;;;;;;;;;;;;;;5084484;28;1660;-74
2022/03/14 16:19:29;;;;;;;;;;;;;;;;;;5068559;28;1238;-75
2022/03/14 16:21:55;;;;;;;;;;;;;;;;;;5057319;28;1212;-75
2022/03/14 16:24:21;;;;;;;;;;;;;;;;;;5063625;28;1034;-76
2022/03/14 16:26:47;;;;;;;;;;;;;;;;;;5081245;28;1970;-75
2022/03/14 16:29:16;;;;;;;;;;;;;;;;;;5056617;28;1230;-75
2022/03/14 16:31:42;;;;;;;;;;;;;;;;;;5064947;28;1255;-76
2022/03/14 16:34:07;;;;;;;;;;;;;;;;;;5056864;28;1298;-82
2022/03/14 16:36:32;;;;;;;;;;;;;;;;;;5057127;28;1201;-81
2022/03/14 16:38:58;;;;;;;;;;;;;;;;;;5056489;28;1166;-81
2022/03/14 16:41:23;;;;;;;;;;;;;;;;;;5056965;28;1285;-82
2022/03/14 16:43:49;;;;;;;;;;;;;;;;;;5055411;28;1318;-82
2022/03/14 16:46:14;;;;;;;;;;;;;;;;;;5058000;28;1957;-82
2022/03/14 16:48:41;;;;;;;;;;;;;;;;;;5054270;28;1285;-82
2022/03/14 16:51:07;;;;;;;;;;;;;;;;;;5059562;28;1144;-82
2022/03/14 16:53:34;;;;;;;;;;;;;;;;;;5075506;28;1275;-82
2022/03/14 16:55:59;;;;;;;;;;;;;;;;;;5069065;28;1215;-81
2022/03/14 16:58:24;;;;;;;;;;;;;;;;;;5061628;28;1242;-82
2022/03/14 17:00:51;;;;;;;;;;;;;;;;;;5070234;28;1304;-82
2022/03/14 17:03:16;;;;;;;;;;;;;;;;;;5050545;28;1159;-81
2022/03/14 17:05:41;;;;;;;;;;;;;;;;;;5052880;28;1206;-82